Time;durP1;ratioP1;P1;durP2;ratioP2;P2;SDS_P1;SDS_P2;PMS_P1;PMS_P2;Temp;Humidity;BMP_temperature;BMP_pressure;BME280_temperature;BME280_humidity;BME280_pressure;Samples;Min_cycle;Max_cycle;Signal;HPM_P1;HPM_P2
2023/02/05 00:01:40;;;;;;;0.85;0.70;;;15.50;52.30;;;;;;5003974;28;20026;-71
2023/02/05 00:04:06;;;;;;;0.60;0.52;;;15.50;52.50;;;;;;5003807;28;20256;-69
2023/02/05 00:06:32;;;;;;;1.05;0.73;;;15.50;52.60;;;;;;5003888;28;20034;-71
2023/02/05 00:08:58;;;;;;;1.23;0.77;;;15.50;52.70;;;;;;5003878;28;20229;-70
2023/02/05 00:11:24;;;;;;;0.77;0.57;;;15.50;52.80;;;;;;5003758;28;20065;-70
2023/02/05 00:13:51;;;;;;;1.27;0.60;;;15.40;52.80;;;;;;5002240;28;20195;-70
2023/02/05 00:16:19;;;;;;;1.42;0.50;;;15.50;52.90;;;;;;5003673;28;20026;-71
2023/02/05 00:18:45;;;;;;;0.60;0.50;;;15.60;52.80;;;;;;5003637;28;20085;-70
2023/02/05 00:21:12;;;;;;;1.17;0.70;;;15.60;52.90;;;;;;5003512;28;20102;-72
2023/02/05 00:23:38;;;;;;;0.93;0.60;;;15.70;52.90;;;;;;5003477;28;20093;-71
2023/02/05 00:26:05;;;;;;;1.00;0.50;;;15.80;52.70;;;;;;5003407;28;20073;-70
2023/02/05 00:28:32;;;;;;;0.55;0.55;;;15.90;52.50;;;;;;5003451;28;20022;-71
2023/02/05 00:30:59;;;;;;;0.93;0.60;;;15.90;52.30;;;;;;5003374;28;20085;-69
2023/02/05 00:33:25;;;;;;;0.70;0.60;;;16.00;52.20;;;;;;5003318;28;20031;-70
2023/02/05 00:35:50;;;;;;;0.45;0.43;;;16.00;52.20;;;;;;5003168;28;20034;-72
2023/02/05 00:38:16;;;;;;;0.85;0.70;;;16.00;52.00;;;;;;5003352;28;20026;-70
2023/02/05 00:40:42;;;;;;;0.55;0.55;;;16.10;51.90;;;;;;5003248;28;20022;-69
2023/02/05 00:43:09;;;;;;;1.15;0.90;;;16.10;51.70;;;;;;5003223;28;20321;-72
2023/02/05 00:45:35;;;;;;;0.80;0.50;;;16.20;51.60;;;;;;5003098;28;20093;-72
2023/02/05 00:48:02;;;;;;;0.70;0.60;;;16.30;51.30;;;;;;5003157;28;20100;-71
2023/02/05 00:50:28;;;;;;;0.70;0.60;;;16.30;51.70;;;;;;5003054;28;20049;-69
2023/02/05 00:52:54;;;;;;;1.83;0.68;;;16.30;51.20;;;;;;5002987;28;20050;-70
2023/02/05 00:55:20;;;;;;;0.85;0.68;;;16.10;51.40;;;;;;5002902;28;20219;-71
2023/02/05 00:57:46;;;;;;;0.52;0.52;;;16.00;51.50;;;;;;5002926;28;20022;-70
2023/02/05 01:00:13;;;;;;;0.57;0.40;;;15.90;51.70;;;;;;5002884;28;20026;-70
2023/02/05 01:02:39;;;;;;;0.90;0.65;;;15.80;51.90;;;;;;5002638;28;20426;-70
2023/02/05 01:05:05;;;;;;;1.00;0.68;;;15.80;52.00;;;;;;5002711;28;20034;-69
2023/02/05 01:07:31;;;;;;;1.33;0.45;;;15.70;52.10;;;;;;5002778;28;20069;-71
2023/02/05 01:09:57;;;;;;;0.30;0.30;;;15.60;52.20;;;;;;5002773;28;20030;-70
2023/02/05 01:12:23;;;;;;;0.85;0.52;;;15.60;52.20;;;;;;5002595;28;20018;-69
2023/02/05 01:14:49;;;;;;;1.10;0.70;;;15.50;52.30;;;;;;5002435;28;20030;-70
2023/02/05 01:17:15;;;;;;;0.60;0.60;;;15.50;52.40;;;;;;5002530;28;20033;-70
2023/02/05 01:19:41;;;;;;;0.95;0.52;;;15.50;52.60;;;;;;5002488;28;20086;-71
2023/02/05 01:22:07;;;;;;;1.10;0.77;;;15.50;52.50;;;;;;5002417;28;20038;-70
2023/02/05 01:24:34;;;;;;;0.38;0.38;;;15.40;52.60;;;;;;5002434;28;20026;-70
2023/02/05 01:26:59;;;;;;;1.33;0.82;;;15.40;52.70;;;;;;5002399;28;20334;-70
2023/02/05 01:29:25;;;;;;;0.73;0.57;;;15.40;52.70;;;;;;5002316;28;20089;-70
2023/02/05 01:31:51;;;;;;;0.65;0.40;;;15.50;52.80;;;;;;5002322;28;20106;-71
2023/02/05 01:34:17;;;;;;;0.82;0.55;;;15.60;52.80;;;;;;5002361;28;20034;-71
2023/02/05 01:36:43;;;;;;;1.75;0.60;;;15.60;52.80;;;;;;5002397;28;20014;-71
2023/02/05 01:39:09;;;;;;;1.45;0.70;;;15.70;52.70;;;;;;5002199;28;20053;-72
2023/02/05 01:41:35;;;;;;;0.50;0.50;;;15.80;52.60;;;;;;5000806;28;20353;-70
2023/02/05 01:44:23;;;;;;;0.50;0.40;;;15.90;52.30;;;;;;5002039;28;20041;-71
2023/02/05 01:46:50;;;;;;;1.58;0.80;;;15.90;52.20;;;;;;5002058;28;20019;-71
2023/02/05 01:49:23;;;;;;;1.00;0.82;;;15.90;52.00;;;;;;5001986;28;20392;-70
2023/02/05 01:51:52;;;;;;;0.43;0.43;;;16.00;51.90;;;;;;5002085;28;20394;-70
2023/02/05 01:54:21;;;;;;;0.57;0.47;;;16.00;51.90;;;;;;5001810;28;20246;-71
2023/02/05 01:56:56;;;;;;;0.80;0.60;;;16.00;51.70;;;;;;5001673;28;20030;-71
2023/02/05 01:59:26;;;;;;;2.30;0.73;;;16.10;51.50;;;;;;5001752;28;20042;-72
2023/02/05 02:01:53;;;;;;;1.00;0.63;;;16.10;51.50;;;;;;5001218;28;20022;-70
2023/02/05 02:04:47;;;;;;;1.73;0.60;;;16.00;51.60;;;;;;5001417;28;20077;-70
2023/02/05 02:07:16;;;;;;;1.55;0.70;;;15.80;51.60;;;;;;5001584;28;20033;-72
2023/02/05 02:09:43;;;;;;;;;;;15.80;51.90;;;;;;5001907;28;20049;-71
2023/02/05 02:12:11;;;;;;;0.40;0.40;;;15.70;52.00;;;;;;5001491;28;19955;-71
2023/02/05 02:14:39;;;;;;;0.75;0.50;;;15.60;52.10;;;;;;5001267;28;20584;-71
2023/02/05 02:17:06;;;;;;;0.98;0.60;;;15.60;52.10;;;;;;5001369;28;20030;-72
2023/02/05 02:19:43;;;;;;;0.65;0.57;;;15.50;52.20;;;;;;5001396;28;20030;-71
2023/02/05 02:22:25;;;;;;;0.40;0.40;;;15.50;52.40;;;;;;5001246;28;20034;-70
2023/02/05 02:25:09;;;;;;;0.30;0.30;;;15.40;52.40;;;;;;5001451;28;20030;-70
2023/02/05 02:27:37;;;;;;;0.75;0.73;;;15.40;52.60;;;;;;5001484;28;20060;-70
2023/02/05 02:30:15;;;;;;;0.57;0.50;;;15.40;52.60;;;;;;5001266;28;20037;-70
2023/02/05 02:33:05;;;;;;;0.57;0.40;;;15.30;52.70;;;;;;5001192;28;20400;-71
2023/02/05 02:35:48;;;;;;;0.70;0.50;;;15.40;52.80;;;;;;5000924;28;20348;-70
2023/02/05 02:38:30;;;;;;;0.80;0.60;;;15.40;52.90;;;;;;5001026;28;20025;-71
2023/02/05 02:41:04;;;;;;;0.57;0.57;;;15.50;53.00;;;;;;5001025;28;20050;-70
2023/02/05 02:43:37;;;;;;;1.35;0.70;;;15.50;53.00;;;;;;5000949;28;20014;-70
2023/02/05 02:46:14;;;;;;;1.15;0.73;;;15.60;52.80;;;;;;5000968;28;20108;-71
2023/02/05 02:48:41;;;;;;;0.68;0.45;;;15.70;52.70;;;;;;5000946;28;20070;-70
2023/02/05 02:51:10;;;;;;;0.65;0.65;;;15.80;52.50;;;;;;5000957;28;20387;-71
2023/02/05 02:53:40;;;;;;;0.60;0.60;;;15.90;52.30;;;;;;5000810;28;20042;-70
2023/02/05 02:56:09;;;;;;;0.52;0.50;;;15.90;52.10;;;;;;5000829;28;20026;-70
2023/02/05 02:58:41;;;;;;;0.70;0.60;;;15.90;52.00;;;;;;5000800;28;20038;-70
2023/02/05 03:01:09;;;;;;;0.60;0.60;;;16.00;52.00;;;;;;5000902;28;20022;-70
2023/02/05 03:03:40;;;;;;;0.70;0.50;;;16.00;51.80;;;;;;5000632;28;20049;-70
2023/02/05 03:06:09;;;;;;;0.50;0.50;;;16.10;51.60;;;;;;5000866;28;20014;-70
2023/02/05 03:08:46;;;;;;;0.75;0.70;;;16.20;51.40;;;;;;5000857;28;20026;-71
2023/02/05 03:11:13;;;;;;;0.40;0.40;;;16.20;51.30;;;;;;5000828;28;20030;-70
2023/02/05 03:13:41;;;;;;;0.60;0.50;;;16.30;51.10;;;;;;5000899;28;20033;-71
2023/02/05 03:16:08;;;;;;;0.30;0.30;;;16.20;51.10;;;;;;5004970;28;20025;-70
2023/02/05 03:18:34;;;;;;;0.38;0.30;;;16.10;51.40;;;;;;5004783;28;20034;-71
2023/02/05 03:21:07;;;;;;;0.68;0.68;;;16.00;51.50;;;;;;5004637;28;20022;-70
2023/02/05 03:23:33;;;;;;;1.15;0.88;;;15.80;51.60;;;;;;5004651;28;20345;-71
2023/02/05 03:25:59;;;;;;;1.27;0.88;;;15.80;51.80;;;;;;5004518;28;20038;-71
2023/02/05 03:28:24;;;;;;;0.93;0.60;;;15.70;51.90;;;;;;5004535;28;20037;-71
2023/02/05 03:31:10;;;;;;;0.52;0.50;;;15.60;52.00;;;;;;5004405;28;20022;-71
2023/02/05 03:34:09;;;;;;;0.57;0.55;;;15.60;52.10;;;;;;5004314;28;20018;-70
2023/02/05 03:36:42;;;;;;;0.52;0.50;;;15.50;52.10;;;;;;5004272;28;20156;-69
2023/02/05 03:39:36;;;;;;;0.80;0.63;;;15.50;52.30;;;;;;5002981;28;20245;-70
2023/02/05 03:42:19;;;;;;;0.60;0.52;;;15.40;52.30;;;;;;5004242;28;20022;-70
2023/02/05 03:45:16;;;;;;;0.65;0.65;;;15.40;52.40;;;;;;5004284;28;20482;-69
2023/02/05 03:48:08;;;;;;;0.50;0.43;;;15.40;52.40;;;;;;5004141;28;20041;-70
2023/02/05 03:50:50;;;;;;;0.77;0.50;;;15.40;52.50;;;;;;5004175;28;20102;-71
2023/02/05 03:53:35;;;;;;;0.75;0.65;;;15.40;52.60;;;;;;5004120;28;20357;-70
2023/02/05 03:56:15;;;;;;;0.60;0.55;;;15.50;52.70;;;;;;5004042;28;20029;-71
2023/02/05 03:58:44;;;;;;;0.70;0.70;;;15.60;52.70;;;;;;5003989;28;20029;-70
2023/02/05 04:01:11;;;;;;;0.90;0.60;;;15.70;52.50;;;;;;5003826;28;20026;-71
2023/02/05 04:03:37;;;;;;;1.05;0.35;;;15.80;52.20;;;;;;5003681;28;20084;-70
2023/02/05 04:06:04;;;;;;;0.60;0.40;;;15.90;52.10;;;;;;5003817;28;20034;-71
2023/02/05 04:08:30;;;;;;;1.08;0.60;;;15.90;51.90;;;;;;5003892;28;20081;-70
2023/02/05 04:10:56;;;;;;;0.85;0.40;;;15.90;51.80;;;;;;5003705;28;20034;-71
2023/02/05 04:13:22;;;;;;;0.38;0.38;;;15.90;51.70;;;;;;5003594;28;20030;-70
2023/02/05 04:15:49;;;;;;;0.50;0.50;;;16.00;51.70;;;;;;5003512;28;20352;-71
2023/02/05 04:18:15;;;;;;;1.02;0.65;;;16.10;51.40;;;;;;5003616;28;20034;-71
2023/02/05 04:20:41;;;;;;;0.32;0.30;;;16.20;51.30;;;;;;5003521;28;20023;-71
2023/02/05 04:23:07;;;;;;;0.40;0.40;;;16.20;51.00;;;;;;5003503;28;20247;-72
2023/02/05 04:25:32;;;;;;;0.65;0.50;;;16.30;50.90;;;;;;5002994;28;20093;-70
2023/02/05 04:27:58;;;;;;;1.33;0.60;;;16.30;50.80;;;;;;5003418;28;20035;-71
2023/02/05 04:30:24;;;;;;;0.90;0.55;;;16.20;50.90;;;;;;5003289;28;20269;-71
2023/02/05 04:32:50;;;;;;;0.30;0.30;;;16.00;51.00;;;;;;5003294;28;20229;-70
2023/02/05 04:35:16;;;;;;;0.82;0.50;;;15.90;51.20;;;;;;5003264;28;20027;-72
2023/02/05 04:37:41;;;;;;;0.73;0.60;;;15.80;51.40;;;;;;5003314;28;20022;-71
2023/02/05 04:40:08;;;;;;;0.60;0.50;;;15.70;51.60;;;;;;5003127;28;20025;-70
2023/02/05 04:42:34;;;;;;;0.50;0.50;;;15.60;51.60;;;;;;5003021;28;20338;-71
2023/02/05 04:45:00;;;;;;;0.80;0.50;;;15.60;51.80;;;;;;5002963;28;20030;-72
2023/02/05 04:47:25;;;;;;;0.98;0.95;;;15.50;51.90;;;;;;5002967;28;20137;-70
2023/02/05 04:49:51;;;;;;;0.82;0.60;;;15.50;52.10;;;;;;5002890;28;20092;-71
2023/02/05 04:52:17;;;;;;;0.65;0.65;;;15.40;52.00;;;;;;5003112;28;20098;-71
2023/02/05 04:54:43;;;;;;;0.63;0.63;;;15.40;52.10;;;;;;5002944;28;20097;-69
2023/02/05 04:57:09;;;;;;;0.88;0.65;;;15.40;52.20;;;;;;5002893;28;20037;-70
2023/02/05 04:59:34;;;;;;;0.80;0.47;;;15.30;52.30;;;;;;5002806;28;20031;-69
2023/02/05 05:02:00;;;;;;;1.17;0.70;;;15.30;52.30;;;;;;5002776;28;20069;-69
2023/02/05 05:04:26;;;;;;;0.98;0.77;;;15.40;52.40;;;;;;5002505;28;20058;-70
2023/02/05 05:06:52;;;;;;;0.45;0.40;;;15.40;52.50;;;;;;5002624;28;20026;-70
2023/02/05 05:09:19;;;;;;;0.63;0.52;;;15.50;52.60;;;;;;5002686;28;20033;-70
2023/02/05 05:11:45;;;;;;;1.10;0.68;;;15.60;52.50;;;;;;5001371;28;20034;-71
2023/02/05 05:14:11;;;;;;;0.40;0.40;;;15.60;52.30;;;;;;5002605;28;20059;-71
2023/02/05 05:16:37;;;;;;;0.60;0.40;;;15.70;52.10;;;;;;5002659;28;20027;-71
2023/02/05 05:19:02;;;;;;;1.05;0.75;;;15.80;51.90;;;;;;5002688;28;20026;-71
2023/02/05 05:21:28;;;;;;;1.02;0.45;;;15.90;51.70;;;;;;5002484;28;20191;-71
2023/02/05 05:23:54;;;;;;;1.35;0.73;;;15.90;51.70;;;;;;5002352;28;20026;-70
2023/02/05 05:26:20;;;;;;;0.68;0.43;;;15.90;51.50;;;;;;5002376;28;20053;-71
2023/02/05 05:28:46;;;;;;;0.47;0.47;;;15.90;51.40;;;;;;5002322;28;20318;-72
2023/02/05 05:31:18;;;;;;;1.10;1.00;;;16.00;51.30;;;;;;5002200;28;20022;-71
2023/02/05 05:33:44;;;;;;;0.75;0.60;;;15.90;51.10;;;;;;5002144;28;20018;-70
2023/02/05 05:36:10;;;;;;;0.43;0.43;;;15.90;51.20;;;;;;5001839;28;20030;-70
2023/02/05 05:38:36;;;;;;;1.15;0.70;;;15.80;51.30;;;;;;5001596;28;20018;-70
2023/02/05 05:43:47;;;;;;;0.80;0.60;;;15.60;51.50;;;;;;5001832;28;20081;-70
2023/02/05 05:46:22;;;;;;;2.00;0.50;;;15.60;51.60;;;;;;5001896;28;20030;-71
2023/02/05 05:48:53;;;;;;;0.73;0.73;;;15.50;51.70;;;;;;5000579;28;20026;-71
2023/02/05 05:51:20;;;;;;;0.70;0.57;;;15.40;51.90;;;;;;5001745;28;20068;-70
2023/02/05 05:53:46;;;;;;;1.35;0.57;;;15.40;52.00;;;;;;5001594;28;20022;-70
2023/02/05 05:56:13;;;;;;;0.90;0.50;;;15.40;52.00;;;;;;5001684;28;20026;-71
2023/02/05 05:58:39;;;;;;;0.50;0.50;;;15.30;52.20;;;;;;5001584;28;20046;-70
2023/02/05 06:01:06;;;;;;;1.02;0.50;;;15.30;52.30;;;;;;5001547;28;20038;-69
2023/02/05 06:03:32;;;;;;;0.95;0.57;;;15.30;52.40;;;;;;5001447;28;20372;-70
2023/02/05 06:06:03;;;;;;;0.57;0.50;;;15.20;52.40;;;;;;5001620;28;20038;-70
2023/02/05 06:08:29;;;;;;;0.60;0.60;;;15.30;52.50;;;;;;5001638;28;20030;-71
2023/02/05 06:10:55;;;;;;;0.50;0.40;;;15.40;52.50;;;;;;5001581;28;20199;-71
2023/02/05 06:13:21;;;;;;;0.88;0.60;;;15.50;52.50;;;;;;5001606;28;20037;-70
2023/02/05 06:15:47;;;;;;;1.40;0.50;;;15.60;52.40;;;;;;5001293;28;20249;-71
2023/02/05 06:18:14;;;;;;;0.63;0.60;;;15.60;52.20;;;;;;5001267;28;20033;-72
2023/02/05 06:20:40;;;;;;;0.52;0.47;;;15.70;52.00;;;;;;5001228;28;20019;-70
2023/02/05 06:23:06;;;;;;;1.02;0.60;;;15.80;51.80;;;;;;5001272;28;20218;-71
2023/02/05 06:25:32;;;;;;;1.15;0.70;;;15.80;51.70;;;;;;5001169;28;20038;-72
2023/02/05 06:27:58;;;;;;;0.95;0.50;;;15.80;51.60;;;;;;5001136;28;20034;-71
2023/02/05 06:30:24;;;;;;;0.88;0.68;;;15.90;51.40;;;;;;5001086;28;20086;-73
2023/02/05 06:32:49;;;;;;;0.70;0.45;;;15.90;51.20;;;;;;5001046;28;20333;-72
2023/02/05 06:35:15;;;;;;;0.77;0.75;;;16.00;50.90;;;;;;5000948;28;20068;-71
2023/02/05 06:37:41;;;;;;;0.70;0.45;;;16.10;50.70;;;;;;5000876;28;20022;-72
2023/02/05 06:40:08;;;;;;;0.40;0.38;;;16.10;50.70;;;;;;5001023;28;20033;-71
2023/02/05 06:42:34;;;;;;;0.57;0.55;;;15.90;50.70;;;;;;5000989;28;20022;-71
2023/02/05 06:44:59;;;;;;;0.90;0.60;;;15.90;51.10;;;;;;5000927;28;20053;-71
2023/02/05 06:47:25;;;;;;;0.75;0.70;;;15.70;51.10;;;;;;5000981;28;20218;-71
2023/02/05 06:49:51;;;;;;;0.55;0.55;;;15.70;51.30;;;;;;5000789;28;20026;-71
2023/02/05 06:52:17;;;;;;;1.13;0.60;;;15.60;51.50;;;;;;5000902;28;20034;-70
2023/02/05 06:54:43;;;;;;;1.00;0.85;;;15.50;51.60;;;;;;5000765;28;20041;-71
2023/02/05 06:57:10;;;;;;;1.23;0.52;;;15.50;51.70;;;;;;5000955;28;20098;-71
2023/02/05 06:59:35;;;;;;;0.70;0.47;;;15.40;51.60;;;;;;5001052;28;20022;-70
2023/02/05 07:02:02;;;;;;;0.80;0.70;;;15.40;51.80;;;;;;5000947;28;20242;-70
2023/02/05 07:04:29;;;;;;;0.82;0.60;;;15.30;51.90;;;;;;5000002;28;20050;-70
2023/02/05 07:06:56;;;;;;;1.23;0.80;;;15.30;52.00;;;;;;4998635;28;20019;-71
2023/02/05 07:09:23;;;;;;;0.95;0.47;;;15.30;52.10;;;;;;4999974;28;20037;-70
2023/02/05 07:11:49;;;;;;;0.45;0.40;;;15.30;52.30;;;;;;4999817;28;20026;-68
2023/02/05 07:14:15;;;;;;;0.65;0.50;;;15.30;52.30;;;;;;4999771;28;20065;-71
2023/02/05 07:16:41;;;;;;;0.65;0.50;;;15.40;52.30;;;;;;4999856;28;20025;-71
2023/02/05 07:19:06;;;;;;;0.60;0.60;;;15.50;52.20;;;;;;4999778;28;20026;-71
2023/02/05 07:21:32;;;;;;;0.73;0.50;;;15.60;52.10;;;;;;4999751;28;20060;-70
2023/02/05 07:23:58;;;;;;;1.15;0.50;;;15.70;51.90;;;;;;4999782;28;20362;-70
2023/02/05 07:26:24;;;;;;;0.93;0.60;;;15.80;51.40;;;;;;4999724;28;20026;-71
2023/02/05 07:28:50;;;;;;;0.65;0.60;;;15.90;51.30;;;;;;4999653;28;20072;-72
2023/02/05 07:31:18;;;;;;;0.60;0.60;;;15.90;51.10;;;;;;4999657;28;20318;-71
2023/02/05 07:33:45;;;;;;;1.10;0.95;;;15.90;51.20;;;;;;4999538;28;20030;-72
2023/02/05 07:36:15;;;;;;;0.68;0.45;;;16.00;50.90;;;;;;4999547;28;20037;-71
2023/02/05 07:38:41;;;;;;;1.20;0.70;;;16.10;50.80;;;;;;4999446;28;20019;-71
2023/02/05 07:41:09;;;;;;;0.55;0.50;;;16.10;50.60;;;;;;4999462;28;20072;-70
2023/02/05 07:43:36;;;;;;;0.90;0.80;;;16.20;50.30;;;;;;4999458;28;20038;-71
2023/02/05 07:46:05;;;;;;;0.77;0.50;;;16.20;50.40;;;;;;4999342;28;20034;-71
2023/02/05 07:48:31;;;;;;;0.80;0.57;;;16.10;50.60;;;;;;4999336;28;20030;-70
2023/02/05 07:50:57;;;;;;;0.80;0.80;;;15.90;50.80;;;;;;4999437;28;20058;-71
2023/02/05 07:53:24;;;;;;;0.68;0.50;;;15.90;51.00;;;;;;4999264;28;20060;-72
2023/02/05 07:55:49;;;;;;;0.88;0.43;;;15.90;51.10;;;;;;4999218;28;20441;-72
2023/02/05 07:58:15;;;;;;;1.88;0.60;;;15.80;51.00;;;;;;4999329;28;20031;-72
2023/02/05 08:00:42;;;;;;;0.40;0.40;;;15.80;51.10;;;;;;5000743;28;20026;-70
2023/02/05 08:03:08;;;;;;;0.65;0.57;;;15.80;50.90;;;;;;4959181;28;1265306;-71
2023/02/05 08:05:36;;;;;;;0.70;0.50;;;15.80;51.00;;;;;;5003766;28;20038;-70
2023/02/05 08:08:01;;;;;;;0.70;0.70;;;15.70;50.90;;;;;;5003318;28;20029;-71
2023/02/05 08:10:27;;;;;;;2.17;0.93;;;15.70;51.00;;;;;;5002288;28;20289;-70
2023/02/05 08:12:53;;;;;;;0.80;0.75;;;15.70;51.10;;;;;;5003583;28;20034;-69
2023/02/05 08:15:19;;;;;;;0.75;0.70;;;15.60;51.20;;;;;;5003518;28;20100;-71
2023/02/05 08:17:45;;;;;;;0.52;0.45;;;15.60;51.10;;;;;;5002312;28;20042;-71
2023/02/05 08:20:11;;;;;;;0.75;0.60;;;15.60;51.30;;;;;;5003507;28;20037;-71
2023/02/05 08:22:40;;;;;;;0.88;0.63;;;15.50;51.40;;;;;;5003288;28;20132;-70
2023/02/05 08:25:10;;;;;;;0.60;0.52;;;15.50;51.50;;;;;;5003415;28;20313;-71
2023/02/05 08:27:38;;;;;;;0.98;0.60;;;15.50;51.60;;;;;;5003320;28;20037;-71
2023/02/05 08:30:07;;;;;;;0.90;0.50;;;15.50;51.80;;;;;;5003244;28;20262;-70
2023/02/05 08:32:33;;;;;;;0.40;0.40;;;15.60;51.80;;;;;;5003339;28;20113;-71
2023/02/05 08:34:58;;;;;;;0.50;0.50;;;15.70;51.80;;;;;;5003234;28;20028;-71
2023/02/05 08:37:24;;;;;;;0.85;0.63;;;15.80;51.60;;;;;;5003342;28;20026;-71
2023/02/05 08:39:50;;;;;;;0.80;0.68;;;15.90;51.40;;;;;;5003290;28;20030;-71
2023/02/05 08:42:16;;;;;;;0.47;0.40;;;16.00;51.10;;;;;;5001869;28;20022;-71
2023/02/05 08:44:42;;;;;;;1.02;0.50;;;16.10;50.80;;;;;;5002965;28;20057;-70
2023/02/05 08:47:08;;;;;;;0.65;0.50;;;16.20;50.80;;;;;;5003063;28;20047;-70
2023/02/05 08:49:34;;;;;;;0.90;0.60;;;16.20;50.70;;;;;;5003040;28;20030;-69
2023/02/05 08:52:00;;;;;;;0.68;0.60;;;16.20;50.80;;;;;;5002926;28;20022;-71
2023/02/05 08:54:26;;;;;;;0.47;0.47;;;16.20;50.50;;;;;;5001388;28;20038;-71
2023/02/05 08:56:51;;;;;;;0.47;0.40;;;16.10;50.90;;;;;;5001575;28;20022;-70
2023/02/05 08:59:18;;;;;;;0.77;0.60;;;16.10;51.10;;;;;;5002960;28;20046;-71
2023/02/05 09:01:45;;;;;;;1.08;0.80;;;16.00;51.10;;;;;;5002925;28;20030;-69
2023/02/05 09:04:16;;;;;;;0.80;0.50;;;16.00;51.00;;;;;;5002620;28;20049;-70
2023/02/05 09:06:43;;;;;;;0.70;0.60;;;15.90;51.90;;;;;;5002779;28;20106;-71
2023/02/05 09:09:09;;;;;;;0.65;0.60;;;15.90;51.30;;;;;;5002677;28;20238;-69
2023/02/05 09:11:34;;;;;;;1.83;0.70;;;15.90;51.50;;;;;;5001442;28;20093;-70
2023/02/05 09:14:00;;;;;;;0.65;0.65;;;15.90;51.50;;;;;;5002395;28;20096;-69
2023/02/05 09:16:26;;;;;;;1.95;0.73;;;15.90;51.60;;;;;;5002494;28;20089;-70
2023/02/05 09:18:56;;;;;;;0.60;0.50;;;15.90;51.00;;;;;;5002482;28;20102;-72
2023/02/05 09:21:23;;;;;;;0.50;0.40;;;15.90;51.70;;;;;;5002492;28;20274;-70
2023/02/05 09:23:50;;;;;;;0.43;0.40;;;15.90;51.60;;;;;;5002444;28;20014;-70
2023/02/05 09:26:16;;;;;;;0.70;0.50;;;15.90;51.70;;;;;;5002319;28;20084;-70
2023/02/05 09:28:42;;;;;;;0.80;0.60;;;15.90;51.60;;;;;;5002260;28;20050;-70
2023/02/05 09:31:11;;;;;;;0.70;0.70;;;15.90;51.20;;;;;;5002208;28;20545;-70
2023/02/05 09:33:37;;;;;;;0.95;0.60;;;15.90;51.40;;;;;;5001937;28;20034;-70
2023/02/05 09:36:13;;;;;;;0.50;0.50;;;15.90;51.50;;;;;;5002013;28;20027;-70
2023/02/05 09:38:40;;;;;;;1.23;0.90;;;15.90;51.60;;;;;;5002067;28;20086;-70
2023/02/05 09:41:34;;;;;;;0.80;0.75;;;15.90;51.60;;;;;;5002033;28;20026;-71
2023/02/05 09:44:33;;;;;;;0.70;0.50;;;16.00;51.40;;;;;;4994624;28;20031;-71
2023/02/05 09:47:24;;;;;;;0.63;0.50;;;15.90;51.50;;;;;;5002004;28;20206;-70
2023/02/05 09:49:54;;;;;;;0.50;0.50;;;16.00;51.40;;;;;;5002028;28;20014;-71
2023/02/05 09:52:26;;;;;;;0.57;0.52;;;16.00;51.60;;;;;;5001975;28;20065;-71
2023/02/05 09:55:00;;;;;;;0.70;0.70;;;16.00;51.60;;;;;;5001705;28;20341;-71
2023/02/05 09:57:38;;;;;;;0.50;0.50;;;16.00;51.30;;;;;;5001789;28;20026;-71
2023/02/05 10:00:26;;;;;;;0.40;0.35;;;16.00;51.40;;;;;;5001702;28;20330;-70
2023/02/05 10:03:30;;;;;;;0.52;0.52;;;15.90;51.30;;;;;;5001356;28;20057;-72
2023/02/05 10:06:09;;;;;;;0.75;0.70;;;16.00;51.50;;;;;;4999787;28;20034;-71
2023/02/05 10:08:37;;;;;;;1.30;0.60;;;16.00;51.20;;;;;;5001617;28;20029;-70
2023/02/05 10:11:13;;;;;;;0.52;0.43;;;16.00;51.50;;;;;;5001554;28;20326;-71
2023/02/05 10:13:46;;;;;;;0.50;0.50;;;16.00;51.50;;;;;;5001580;28;20129;-71
2023/02/05 10:17:02;;;;;;;0.50;0.40;;;16.00;51.30;;;;;;5001252;28;20249;-71
2023/02/05 10:20:00;;;;;;;0.35;0.35;;;16.00;51.30;;;;;;4922091;29;20040;-71
2023/02/05 10:22:48;;;;;;;0.38;0.38;;;16.00;51.30;;;;;;5001128;28;20016;-70
2023/02/05 10:25:54;;;;;;;0.73;0.60;;;16.00;51.40;;;;;;4961129;28;20369;-72
2023/02/05 10:28:32;;;;;;;1.48;0.70;;;16.00;51.40;;;;;;5001400;28;20022;-70
2023/02/05 10:31:23;;;;;;;0.52;0.52;;;16.00;51.20;;;;;;5001356;28;20026;-71
2023/02/05 10:33:54;;;;;;;0.55;0.52;;;16.10;51.30;;;;;;5001235;28;20230;-72
2023/02/05 10:36:25;;;;;;;0.55;0.30;;;16.20;51.20;;;;;;5001253;28;20313;-70
2023/02/05 10:38:54;;;;;;;0.47;0.47;;;16.30;51.00;;;;;;5001117;28;20029;-70
2023/02/05 10:41:41;;;;;;;0.55;0.50;;;16.40;50.70;;;;;;5001154;28;20046;-72
2023/02/05 10:44:22;;;;;;;0.50;0.40;;;16.50;50.40;;;;;;5001044;28;20022;-70
2023/02/05 10:46:51;;;;;;;0.65;0.40;;;16.60;50.20;;;;;;5000983;28;20162;-71
2023/02/05 10:49:21;;;;;;;0.50;0.40;;;16.60;50.10;;;;;;5000943;28;20026;-72
2023/02/05 10:51:47;;;;;;;0.60;0.55;;;16.60;50.10;;;;;;5001301;28;20068;-72
2023/02/05 10:54:26;;;;;;;0.70;0.45;;;16.70;50.00;;;;;;5000826;28;20054;-72
2023/02/05 10:56:53;;;;;;;1.17;0.50;;;16.60;50.00;;;;;;5000850;28;20033;-71
2023/02/05 10:59:23;;;;;;;0.70;0.60;;;16.60;50.10;;;;;;5000787;28;20022;-72
2023/02/05 11:01:50;;;;;;;0.43;0.43;;;16.60;50.30;;;;;;5000787;28;20459;-69
2023/02/05 11:04:26;;;;;;;0.47;0.47;;;16.60;50.20;;;;;;5000610;28;20084;-69
2023/02/05 11:06:52;;;;;;;0.40;0.40;;;16.60;50.00;;;;;;5000673;28;20232;-70
2023/02/05 11:09:24;;;;;;;0.57;0.43;;;16.50;50.20;;;;;;5000731;28;20037;-70
2023/02/05 11:12:04;;;;;;;0.47;0.45;;;16.50;50.30;;;;;;5000650;28;20035;-72
2023/02/05 11:14:32;;;;;;;0.60;0.50;;;16.40;50.30;;;;;;5000649;28;20026;-70
2023/02/05 11:17:02;;;;;;;0.40;0.40;;;16.40;50.40;;;;;;5000627;28;20044;-72
2023/02/05 11:19:28;;;;;;;0.50;0.50;;;16.40;50.50;;;;;;5000566;28;20018;-70
2023/02/05 11:22:00;;;;;;;0.35;0.32;;;16.40;50.40;;;;;;5000523;28;20033;-70
2023/02/05 11:24:35;;;;;;;1.50;0.70;;;16.40;50.60;;;;;;5000536;28;20037;-71
2023/02/05 11:27:33;;;;;;;0.70;0.52;;;16.40;49.10;;;;;;5000587;28;20360;-72
2023/02/05 11:30:25;;;;;;;0.50;0.50;;;16.30;49.00;;;;;;5000559;28;20105;-69
2023/02/05 11:32:51;;;;;;;0.68;0.43;;;16.30;50.20;;;;;;5000408;28;20041;-70
2023/02/05 11:35:19;;;;;;;1.25;0.70;;;16.20;50.50;;;;;;5001531;28;20030;-72
2023/02/05 11:38:07;;;;;;;0.35;0.35;;;16.20;50.70;;;;;;5004343;28;20022;-70
2023/02/05 11:40:33;;;;;;;0.47;0.40;;;16.20;50.70;;;;;;5003698;28;20030;-70
2023/02/05 11:43:13;;;;;;;0.60;0.60;;;16.20;50.60;;;;;;5004280;28;20219;-71
2023/02/05 11:45:39;;;;;;;0.55;0.50;;;16.20;51.00;;;;;;5004182;28;20054;-69
2023/02/05 11:48:21;;;;;;;1.35;0.80;;;16.20;51.10;;;;;;5004137;28;20041;-69
2023/02/05 11:50:47;;;;;;;0.65;0.60;;;16.20;50.90;;;;;;5004057;28;20034;-72
2023/02/05 11:53:18;;;;;;;1.10;0.60;;;16.20;50.90;;;;;;5004042;28;20022;-71
2023/02/05 11:55:50;;;;;;;1.30;0.70;;;16.20;51.00;;;;;;5003886;28;20221;-70
2023/02/05 11:58:44;;;;;;;0.45;0.43;;;16.20;50.90;;;;;;5003963;28;20233;-71
2023/02/05 12:01:23;;;;;;;0.60;0.55;;;16.20;49.70;;;;;;5000432;28;20117;-70
2023/02/05 12:04:12;;;;;;;0.30;0.30;;;16.20;50.80;;;;;;5003806;28;20049;-70
2023/02/05 12:06:54;;;;;;;0.68;0.57;;;16.20;50.50;;;;;;5002513;28;20018;-71
2023/02/05 12:09:22;;;;;;;0.60;0.60;;;16.20;51.10;;;;;;5003881;28;20050;-71
2023/02/05 12:12:10;;;;;;;0.55;0.45;;;16.20;50.90;;;;;;5003813;28;20018;-71
2023/02/05 12:14:39;;;;;;;0.73;0.50;;;16.20;51.00;;;;;;5003683;28;20030;-70
2023/02/05 12:17:05;;;;;;;0.38;0.38;;;16.20;50.90;;;;;;5003692;28;20049;-69
2023/02/05 12:19:43;;;;;;;0.55;0.55;;;16.30;51.00;;;;;;5003720;28;20023;-70
2023/02/05 12:22:35;;;;;;;0.67;0.60;;;16.30;51.00;;;;;;5003922;28;20010;-70
2023/02/05 12:25:32;;;;;;;0.52;0.40;;;16.20;50.70;;;;;;4968659;28;20044;-69
2023/02/05 12:28:04;;;;;;;0.70;0.70;;;16.20;50.70;;;;;;5003527;28;20371;-70
2023/02/05 12:30:48;;;;;;;0.75;0.60;;;16.20;49.70;;;;;;5003436;28;20034;-72
2023/02/05 12:33:51;;;;;;;0.77;0.55;;;16.20;50.30;;;;;;5003457;28;20022;-69
2023/02/05 12:36:29;;;;;;;0.73;0.50;;;16.30;50.70;;;;;;5003334;28;20065;-71
2023/02/05 12:39:26;;;;;;;0.70;0.50;;;16.30;50.60;;;;;;5003472;28;20030;-69
2023/02/05 12:42:13;;;;;;;0.50;0.40;;;16.30;50.90;;;;;;5003350;28;20429;-71
2023/02/05 12:44:51;;;;;;;0.60;0.60;;;16.30;51.00;;;;;;5003337;28;20023;-71
2023/02/05 12:47:33;;;;;;;0.75;0.60;;;16.30;50.80;;;;;;5003122;28;20030;-72
2023/02/05 12:50:14;;;;;;;0.90;0.60;;;16.30;51.40;;;;;;5003162;28;20329;-69
2023/02/05 12:52:55;;;;;;;0.80;0.60;;;16.40;49.80;;;;;;5003145;28;20081;-71
2023/02/05 12:55:41;;;;;;;0.32;0.32;;;16.40;50.40;;;;;;5003057;28;20089;-71
2023/02/05 12:58:11;;;;;;;0.40;0.40;;;16.40;50.20;;;;;;5002979;28;20023;-71
2023/02/05 13:00:43;;;;;;;0.70;0.50;;;16.40;50.20;;;;;;5003177;28;20030;-71
2023/02/05 13:03:21;;;;;;;0.52;0.47;;;16.40;50.00;;;;;;5002844;28;20045;-70
2023/02/05 13:06:01;;;;;;;1.65;0.57;;;16.50;49.80;;;;;;5002984;28;20521;-70
2023/02/05 13:08:41;;;;;;;0.40;0.40;;;16.50;49.80;;;;;;5002932;28;20329;-71
2023/02/05 13:11:34;;;;;;;1.02;0.57;;;16.60;49.40;;;;;;5002777;28;20034;-70